createdAt,value
2022-09-23T00:01:12.571Z,7.25
2022-09-23T00:04:18.265Z,8.30
2022-09-23T00:07:24.251Z,14.68
2022-09-23T00:10:33.512Z,14.18
2022-09-23T00:13:41.937Z,8.75
2022-09-23T00:16:47.703Z,7.30
2022-09-23T00:19:54.580Z,8.15
2022-09-23T00:23:00.866Z,6.45
2022-09-23T00:26:08.995Z,12.27
2022-09-23T00:29:16.320Z,9.88
2022-09-23T00:32:21.668Z,10.07
2022-09-23T00:35:27.620Z,9.15
2022-09-23T00:38:34.484Z,7.43
2022-09-23T00:41:40.909Z,7.50
2022-09-23T00:44:58.165Z,6.72
2022-09-23T00:48:05.352Z,8.15
2022-09-23T00:51:18.364Z,6.97
2022-09-23T00:54:27.918Z,9.48
2022-09-23T00:57:35.332Z,10.23
2022-09-23T01:00:42.394Z,5.32
2022-09-23T01:03:49.269Z,9.85
2022-09-23T01:06:54.752Z,10.27
2022-09-23T01:10:02.056Z,9.20
2022-09-23T01:13:32.640Z,8.48
2022-09-23T01:16:43.391Z,8.85
2022-09-23T01:20:06.544Z,10.65
2022-09-23T01:23:36.503Z,8.38
2022-09-23T01:27:15.976Z,9.52
2022-09-23T01:31:10.159Z,11.65
2022-09-23T01:34:42.605Z,10.10
2022-09-23T01:37:53.633Z,10.48
2022-09-23T01:41:25.719Z,11.60
2022-09-23T01:44:47.970Z,12.18
2022-09-23T01:48:14.097Z,11.88
2022-09-23T01:51:52.936Z,12.07
2022-09-23T01:55:25.230Z,8.60
2022-09-23T01:58:45.954Z,9.70
2022-09-23T02:02:14.483Z,10.25
2022-09-23T02:05:26.424Z,7.00
2022-09-23T02:08:38.786Z,13.90
2022-09-23T02:11:48.641Z,15.55
2022-09-23T02:15:03.655Z,16.77
2022-09-23T02:18:17.122Z,14.05
2022-09-23T02:21:27.012Z,14.88
2022-09-23T02:24:36.949Z,8.13
2022-09-23T02:27:48.034Z,6.07
2022-09-23T02:34:32.522Z,10.60
2022-09-23T02:38:02.993Z,6.85
2022-09-23T02:41:18.594Z,5.55
2022-09-23T02:44:24.615Z,6.88
2022-09-23T02:47:35.504Z,9.20
2022-09-23T02:50:41.177Z,8.23
2022-09-23T02:53:48.091Z,6.57
2022-09-23T02:56:53.722Z,6.95
2022-09-23T02:59:59.919Z,6.70
2022-09-23T03:03:36.825Z,5.85
2022-09-23T03:07:00.124Z,9.30
2022-09-23T03:10:14.934Z,8.57
2022-09-23T03:13:38.843Z,13.60
2022-09-23T03:16:53.417Z,12.73
2022-09-23T03:20:09.582Z,8.40
2022-09-23T03:23:19.185Z,8.88
2022-09-23T03:26:31.678Z,9.02
2022-09-23T03:29:37.394Z,8.52
2022-09-23T03:32:45.860Z,19.00
2022-09-23T03:36:13.847Z,10.27
2022-09-23T03:39:28.537Z,8.00
2022-09-23T03:42:35.767Z,5.97
2022-09-23T03:45:42.989Z,10.82
2022-09-23T03:48:49.689Z,9.05
2022-09-23T03:51:56.444Z,7.22
2022-09-23T03:55:02.132Z,6.38
2022-09-23T03:58:08.409Z,9.05
2022-09-23T04:01:15.073Z,6.70
2022-09-23T04:04:21.217Z,6.22
2022-09-23T04:07:27.407Z,5.50
2022-09-23T04:10:32.984Z,7.03
2022-09-23T04:13:38.529Z,10.52
2022-09-23T04:16:44.723Z,6.70
2022-09-23T04:19:50.545Z,7.93
2022-09-23T04:22:57.023Z,6.78
2022-09-23T04:26:02.404Z,7.07
2022-09-23T04:29:08.393Z,7.10
2022-09-23T04:32:13.731Z,6.72
2022-09-23T04:35:19.327Z,11.30
2022-09-23T04:38:25.271Z,7.20
2022-09-23T04:41:30.645Z,11.38
2022-09-23T04:44:36.081Z,13.55
2022-09-23T04:47:41.820Z,9.85
2022-09-23T04:50:49.096Z,8.95
2022-09-23T04:53:55.483Z,9.82
2022-09-23T04:57:01.354Z,9.63
2022-09-23T05:00:07.993Z,9.45
2022-09-23T05:03:14.389Z,8.55
2022-09-23T05:06:20.859Z,23.08
2022-09-23T05:09:26.434Z,11.85
2022-09-23T05:12:31.969Z,12.25
2022-09-23T05:15:37.522Z,12.68
2022-09-23T05:18:45.378Z,9.95
2022-09-23T05:21:50.756Z,10.32
2022-09-23T05:24:56.332Z,9.68
2022-09-23T05:28:02.253Z,11.10
2022-09-23T05:31:20.029Z,10.57
2022-09-23T05:34:26.016Z,13.52
2022-09-23T05:37:33.354Z,22.67
2022-09-23T05:40:38.715Z,16.83
2022-09-23T05:43:44.227Z,17.88
2022-09-23T05:46:50.326Z,12.20
2022-09-23T05:50:00.061Z,11.70
2022-09-23T05:53:06.268Z,9.80
2022-09-23T05:56:22.678Z,10.50
2022-09-23T05:59:28.173Z,5.15
2022-09-23T06:02:33.591Z,6.95
2022-09-23T06:05:39.059Z,8.18
2022-09-23T06:08:48.862Z,14.82
2022-09-23T06:11:54.412Z,14.63
2022-09-23T06:15:01.484Z,23.20
2022-09-23T06:18:07.470Z,15.07
2022-09-23T06:21:17.919Z,9.85
2022-09-23T06:24:28.553Z,16.08
2022-09-23T06:27:36.389Z,14.82
2022-09-23T06:30:43.002Z,17.95
2022-09-23T06:33:50.845Z,15.65
2022-09-23T06:36:58.956Z,18.77
2022-09-23T06:40:07.139Z,14.05
2022-09-23T06:43:12.905Z,6.13
2022-09-23T06:46:18.392Z,4.35
2022-09-23T06:49:23.664Z,10.20
2022-09-23T06:52:29.382Z,6.47
2022-09-23T06:55:35.457Z,9.52
2022-09-23T06:58:41.317Z,5.22
2022-09-23T07:01:48.584Z,7.65
2022-09-23T07:04:57.820Z,7.28
2022-09-23T07:08:03.832Z,10.63
2022-09-23T07:11:12.642Z,11.27
2022-09-23T07:14:18.364Z,5.68
2022-09-23T07:17:27.317Z,12.40
2022-09-23T07:20:33.211Z,10.75
2022-09-23T07:23:39.119Z,5.18
2022-09-23T07:26:45.764Z,10.32
2022-09-23T07:29:52.346Z,7.70
2022-09-23T07:32:57.979Z,14.07
2022-09-23T07:36:12.814Z,17.77
2022-09-23T07:39:18.525Z,15.88
2022-09-23T07:42:24.334Z,10.85
2022-09-23T07:45:31.416Z,16.85
2022-09-23T07:48:38.442Z,8.60
2022-09-23T07:51:46.703Z,15.32
2022-09-23T07:54:51.973Z,11.52
2022-09-23T07:57:57.764Z,20.63
2022-09-23T08:01:05.990Z,12.23
2022-09-23T08:04:16.191Z,13.13
2022-09-23T08:07:22.179Z,10.48
2022-09-23T08:10:27.588Z,14.68
2022-09-23T08:13:33.918Z,8.75
2022-09-23T08:16:40.690Z,11.10
2022-09-23T08:19:49.252Z,8.10
2022-09-23T08:22:55.025Z,5.85
2022-09-23T08:26:03.103Z,11.93
2022-09-23T08:29:10.685Z,7.90
2022-09-23T08:32:16.429Z,4.82
2022-09-23T08:35:22.614Z,13.02
2022-09-23T08:38:29.183Z,14.85
2022-09-23T08:41:54.879Z,10.13
2022-09-23T08:45:08.542Z,5.38
2022-09-23T08:48:27.737Z,7.40
2022-09-23T08:51:47.015Z,4.60
2022-09-23T08:54:55.470Z,5.38
2022-09-23T08:58:25.710Z,5.90
2022-09-23T09:01:47.584Z,7.13
2022-09-23T09:05:01.916Z,3.83
2022-09-23T09:08:09.278Z,6.78
2022-09-23T09:11:16.815Z,4.70
2022-09-23T09:14:42.998Z,6.38
2022-09-23T09:18:02.674Z,5.32
2022-09-23T09:21:13.470Z,7.00
2022-09-23T09:24:25.262Z,11.80
2022-09-23T09:27:31.218Z,3.28
2022-09-23T09:30:37.484Z,8.57
2022-09-23T09:33:58.769Z,7.03
2022-09-23T09:37:14.299Z,5.97
2022-09-23T09:40:21.063Z,2.67
2022-09-23T09:43:26.914Z,3.47
2022-09-23T09:46:55.777Z,2.80
2022-09-23T09:50:11.415Z,6.38
2022-09-23T09:53:22.842Z,7.65
2022-09-23T09:56:35.434Z,5.80
2022-09-23T09:59:44.506Z,6.15
2022-09-23T10:02:55.379Z,4.32
2022-09-23T10:06:22.745Z,2.75
2022-09-23T10:09:34.935Z,4.82
2022-09-23T10:12:49.473Z,7.07
2022-09-23T10:15:57.307Z,5.25
2022-09-23T10:19:04.994Z,5.30
2022-09-23T10:22:30.447Z,3.72
2022-09-23T10:25:37.299Z,5.15
2022-09-23T10:28:51.047Z,11.23
2022-09-23T10:32:28.845Z,14.07
2022-09-23T10:35:35.371Z,4.38
2022-09-23T10:38:42.815Z,7.22
2022-09-23T10:42:31.518Z,4.30
2022-09-23T10:45:59.522Z,2.33
2022-09-23T10:49:36.092Z,6.93
2022-09-23T10:53:10.523Z,5.70
2022-09-23T10:56:35.925Z,4.22
2022-09-23T11:00:02.718Z,5.30
2022-09-23T11:03:36.429Z,1.75
2022-09-23T11:07:07.828Z,5.28
2022-09-23T11:14:17.760Z,6.38
2022-09-23T11:17:57.060Z,4.65
2022-09-23T11:21:07.661Z,4.97
2022-09-23T11:24:25.132Z,5.55
2022-09-23T11:27:39.114Z,2.50
2022-09-23T11:30:57.907Z,2.25
2022-09-23T11:34:39.155Z,15.85
2022-09-23T11:38:11.718Z,5.15
2022-09-23T11:41:26.372Z,5.25
2022-09-23T11:44:33.987Z,2.55
2022-09-23T11:48:11.422Z,3.15
2022-09-23T11:51:29.898Z,4.90
2022-09-23T11:54:47.530Z,3.08
2022-09-23T11:58:25.505Z,3.13
2022-09-23T12:01:37.920Z,2.97
2022-09-23T12:05:09.607Z,7.60
2022-09-23T12:08:27.317Z,7.38
2022-09-23T12:11:46.864Z,8.57
2022-09-23T12:15:14.115Z,5.28
2022-09-23T12:18:44.881Z,2.03
2022-09-23T12:22:27.343Z,3.72
2022-09-23T12:25:56.713Z,11.05
2022-09-23T12:29:05.957Z,6.63
2022-09-23T12:32:19.042Z,3.35
2022-09-23T12:35:46.174Z,3.85
2022-09-23T12:38:53.741Z,9.75
2022-09-23T12:42:05.333Z,7.32
2022-09-23T12:45:35.277Z,9.07
2022-09-23T12:49:02.423Z,13.65
2022-09-23T12:52:16.911Z,10.82
2022-09-23T12:55:22.356Z,9.30
2022-09-23T12:58:48.591Z,11.57
2022-09-23T13:01:55.109Z,4.82
2022-09-23T13:05:30.993Z,2.60
2022-09-23T13:08:42.656Z,4.22
2022-09-23T13:11:49.109Z,6.85
2022-09-23T13:15:06.083Z,3.55
2022-09-23T13:18:20.797Z,3.33
2022-09-23T13:21:45.314Z,3.80
2022-09-23T13:24:55.981Z,6.45
2022-09-23T13:28:04.289Z,3.20
2022-09-23T13:31:18.227Z,10.15
2022-09-23T13:34:29.249Z,5.03
2022-09-23T13:40:45.649Z,3.67
2022-09-23T13:43:59.433Z,10.20
2022-09-23T13:47:04.947Z,5.70
2022-09-23T13:50:25.168Z,4.82
2022-09-23T13:53:33.008Z,6.40
2022-09-23T13:56:49.563Z,6.47
2022-09-23T14:00:00.651Z,7.30
2022-09-23T14:03:19.298Z,4.47
2022-09-23T14:06:27.629Z,5.10
2022-09-23T14:09:38.301Z,11.07
2022-09-23T14:15:51.101Z,8.88
2022-09-23T14:18:59.840Z,8.35
2022-09-23T14:22:08.193Z,7.55
2022-09-23T14:25:19.246Z,3.50
2022-09-23T14:28:27.692Z,3.58
2022-09-23T14:31:33.769Z,4.43
2022-09-23T14:35:06.984Z,4.68
2022-09-23T14:38:31.495Z,9.35
2022-09-23T14:41:41.474Z,12.02
2022-09-23T14:44:50.978Z,8.90
2022-09-23T14:48:05.137Z,4.60
2022-09-23T14:51:14.671Z,5.15
2022-09-23T14:54:24.571Z,6.13
2022-09-23T14:57:31.763Z,7.53
2022-09-23T15:00:37.330Z,7.63
2022-09-23T15:03:48.785Z,4.75
2022-09-23T15:06:57.731Z,5.38
2022-09-23T15:10:07.479Z,6.53
2022-09-23T15:13:20.190Z,9.20
2022-09-23T15:16:28.317Z,6.15
2022-09-23T15:19:36.391Z,8.85
2022-09-23T15:22:50.982Z,7.32
2022-09-23T15:25:56.389Z,13.20
2022-09-23T15:29:02.366Z,7.57
2022-09-23T15:32:08.938Z,7.53
2022-09-23T15:35:19.368Z,9.65
2022-09-23T15:38:27.166Z,8.77
2022-09-23T15:41:35.917Z,27.77
2022-09-23T15:44:41.403Z,13.43
2022-09-23T15:47:48.345Z,7.22
2022-09-23T15:50:54.981Z,5.78
2022-09-23T15:54:00.649Z,6.95
2022-09-23T15:57:06.110Z,13.02
2022-09-23T16:00:13.695Z,13.07
2022-09-23T16:03:22.350Z,22.33
2022-09-23T16:06:28.268Z,26.80
2022-09-23T16:09:33.241Z,16.83
2022-09-23T16:12:38.468Z,12.98
2022-09-23T16:15:44.549Z,19.50
2022-09-23T16:18:53.375Z,32.90
2022-09-23T16:21:58.828Z,38.33
2022-09-23T16:25:06.541Z,29.27
2022-09-23T16:28:12.018Z,32.25
2022-09-23T16:31:18.566Z,42.42
2022-09-23T16:34:25.297Z,50.03
2022-09-23T16:37:30.991Z,52.92
2022-09-23T16:40:36.434Z,49.92
2022-09-23T16:43:42.277Z,52.60
2022-09-23T16:46:48.082Z,94.50
2022-09-23T16:49:53.409Z,87.72
2022-09-23T16:52:58.836Z,114.55
2022-09-23T16:56:09.845Z,132.18
2022-09-23T16:59:16.661Z,89.15
2022-09-23T17:02:40.720Z,93.90
2022-09-23T17:05:47.023Z,98.03
2022-09-23T17:08:52.624Z,76.47
2022-09-23T17:12:07.654Z,106.13
2022-09-23T17:15:13.635Z,65.32
2022-09-23T17:18:21.333Z,48.97
2022-09-23T17:21:28.171Z,48.72
2022-09-23T17:24:33.789Z,36.88
2022-09-23T17:27:39.217Z,26.70
2022-09-23T17:30:44.687Z,27.60
2022-09-23T17:33:50.821Z,24.63
2022-09-23T17:36:56.096Z,26.95
2022-09-23T17:40:01.670Z,34.10
2022-09-23T17:43:08.346Z,32.90
2022-09-23T17:46:19.064Z,32.90
2022-09-23T17:49:24.707Z,22.42
2022-09-23T17:52:30.077Z,22.90
2022-09-23T17:55:36.338Z,23.98
2022-09-23T17:58:43.213Z,14.68
2022-09-23T18:01:48.895Z,19.63
2022-09-23T18:04:56.738Z,12.88
2022-09-23T18:08:05.988Z,15.32
2022-09-23T18:11:22.138Z,19.95
2022-09-23T18:14:32.056Z,20.83
2022-09-23T18:17:40.083Z,10.77
2022-09-23T18:20:45.655Z,15.25
2022-09-23T18:23:51.306Z,9.38
2022-09-23T18:27:00.176Z,5.53
2022-09-23T18:30:23.071Z,15.85
2022-09-23T18:33:43.318Z,11.35
2022-09-23T18:37:16.711Z,9.80
2022-09-23T18:40:51.550Z,6.45
2022-09-23T18:44:23.138Z,8.93
2022-09-23T18:48:25.265Z,10.68
2022-09-23T18:51:59.387Z,8.65
2022-09-23T18:55:10.152Z,14.10
2022-09-23T18:58:19.065Z,11.05
2022-09-23T19:01:30.237Z,17.65
2022-09-23T19:04:40.589Z,11.07
2022-09-23T19:07:54.632Z,8.10
2022-09-23T19:11:37.250Z,13.18
2022-09-23T19:15:03.877Z,10.65
2022-09-23T19:18:17.201Z,38.40
2022-09-23T19:26:19.405Z,20.35
2022-09-23T19:33:21.292Z,21.17
2022-09-23T19:59:56.912Z,14.63
2022-09-23T20:06:48.133Z,20.77
2022-09-23T20:13:06.693Z,16.45
2022-09-23T20:16:18.095Z,16.27
2022-09-23T20:19:25.526Z,17.90
2022-09-23T20:22:38.993Z,14.95
2022-09-23T20:26:14.650Z,12.85
2022-09-23T20:29:20.933Z,20.05
2022-09-23T20:32:28.935Z,13.30
2022-09-23T20:35:42.800Z,13.35
2022-09-23T20:38:57.614Z,9.93
2022-09-23T20:42:05.704Z,14.32
2022-09-23T20:45:24.980Z,12.30
2022-09-23T20:48:48.164Z,10.40
2022-09-23T20:51:57.065Z,17.00
2022-09-23T20:55:03.590Z,16.52
2022-09-23T20:58:09.374Z,15.10
2022-09-23T21:01:16.167Z,14.27
2022-09-23T21:04:22.877Z,19.70
2022-09-23T21:07:28.564Z,18.63
2022-09-23T21:10:33.740Z,17.23
2022-09-23T21:13:39.913Z,16.27
2022-09-23T21:16:45.456Z,14.52
2022-09-23T21:19:51.096Z,15.23
2022-09-23T21:22:57.703Z,29.45
2022-09-23T21:26:07.154Z,14.32
2022-09-23T21:29:14.056Z,14.10
2022-09-23T21:32:19.843Z,17.55
2022-09-23T21:35:25.435Z,12.93
2022-09-23T21:38:34.201Z,19.58
2022-09-23T21:41:40.262Z,9.38
2022-09-23T21:44:45.973Z,11.30
2022-09-23T21:47:52.379Z,15.35
2022-09-23T21:51:00.584Z,21.15
2022-09-23T21:54:11.488Z,12.63
2022-09-23T21:57:17.301Z,14.20
2022-09-23T22:00:23.952Z,13.25
2022-09-23T22:03:29.997Z,13.38
2022-09-23T22:06:38.405Z,18.10
2022-09-23T22:09:47.340Z,14.20
2022-09-23T22:12:52.762Z,13.38
2022-09-23T22:16:06.331Z,23.80
2022-09-23T22:19:13.837Z,17.15
2022-09-23T22:22:19.301Z,13.07
2022-09-23T22:25:25.278Z,15.30
2022-09-23T22:28:51.414Z,15.50
2022-09-23T22:32:16.353Z,14.00
2022-09-23T22:35:22.049Z,16.15
2022-09-23T22:38:27.863Z,13.23
2022-09-23T22:41:33.957Z,18.75
2022-09-23T22:44:39.727Z,14.90
2022-09-23T22:47:46.071Z,11.88
2022-09-23T22:50:51.960Z,10.27
2022-09-23T22:53:57.342Z,13.15
2022-09-23T22:57:07.141Z,9.60
2022-09-23T23:00:13.100Z,13.30
2022-09-23T23:03:20.675Z,13.93
2022-09-23T23:06:26.457Z,12.27
2022-09-23T23:09:32.283Z,14.90
2022-09-23T23:12:38.888Z,14.07
2022-09-23T23:15:44.681Z,19.67
2022-09-23T23:18:50.404Z,12.60
2022-09-23T23:21:55.932Z,11.68
2022-09-23T23:25:01.050Z,14.63
2022-09-23T23:28:06.178Z,21.73
2022-09-23T23:31:14.935Z,12.52
2022-09-23T23:34:21.754Z,15.75
2022-09-23T23:37:29.562Z,18.92
2022-09-23T23:40:37.914Z,14.35
2022-09-23T23:43:46.378Z,13.77
2022-09-23T23:46:53.102Z,14.43
2022-09-23T23:49:58.650Z,17.00
2022-09-23T23:53:05.780Z,12.38
2022-09-23T23:56:13.816Z,11.48
2022-09-23T23:59:20.377Z,12.70
